createdAt,value
2022-09-26T00:00:43.288Z,0.00
2022-09-26T00:01:43.236Z,0.00
2022-09-26T00:02:43.163Z,0.00
2022-09-26T00:03:43.127Z,0.00
2022-09-26T00:04:43.070Z,0.00
2022-09-26T00:05:43.212Z,0.00
2022-09-26T00:06:42.970Z,0.00
2022-09-26T00:07:42.963Z,0.00
2022-09-26T00:08:43.249Z,0.00
2022-09-26T00:09:42.961Z,0.00
2022-09-26T00:10:42.888Z,0.00
2022-09-26T00:11:42.966Z,0.00
2022-09-26T00:12:42.889Z,0.00
2022-09-26T00:13:42.994Z,0.00
2022-09-26T00:14:42.882Z,0.00
2022-09-26T00:15:42.830Z,0.00
2022-09-26T00:16:44.274Z,0.00
2022-09-26T00:17:42.959Z,0.00
2022-09-26T00:18:43.805Z,0.00
2022-09-26T00:19:44.217Z,0.00
2022-09-26T00:20:42.771Z,0.00
2022-09-26T00:21:42.780Z,0.00
2022-09-26T00:22:44.540Z,0.00
2022-09-26T00:23:42.789Z,0.00
2022-09-26T00:24:42.751Z,0.00
2022-09-26T00:25:42.813Z,0.00
2022-09-26T00:26:44.736Z,0.00
2022-09-26T00:27:44.805Z,0.00
2022-09-26T00:28:42.745Z,0.00
2022-09-26T00:29:42.840Z,0.00
2022-09-26T00:30:42.717Z,0.00
2022-09-26T00:31:48.592Z,0.00
2022-09-26T00:32:42.767Z,0.00
2022-09-26T00:33:49.367Z,0.00
2022-09-26T00:34:43.409Z,0.00
2022-09-26T00:35:42.634Z,0.00
2022-09-26T00:36:45.067Z,0.00
2022-09-26T00:37:42.829Z,0.00
2022-09-26T00:38:42.587Z,0.00
2022-09-26T00:39:42.646Z,0.00
2022-09-26T00:40:43.858Z,0.00
2022-09-26T00:41:43.213Z,0.00
2022-09-26T00:42:43.293Z,0.00
2022-09-26T00:43:42.541Z,0.00
2022-09-26T00:44:42.541Z,0.00
2022-09-26T00:45:42.571Z,0.00
2022-09-26T00:46:42.456Z,0.00
2022-09-26T00:47:42.525Z,0.00
2022-09-26T00:48:43.525Z,0.00
2022-09-26T00:49:42.499Z,0.00
2022-09-26T00:50:42.405Z,0.00
2022-09-26T00:51:43.173Z,0.00
2022-09-26T00:52:42.423Z,0.00
2022-09-26T00:53:59.485Z,0.00
2022-09-26T00:54:42.375Z,0.00
2022-09-26T00:55:43.316Z,0.00
2022-09-26T00:56:42.358Z,0.00
2022-09-26T00:57:43.284Z,0.00
2022-09-26T00:58:42.358Z,0.00
2022-09-26T00:59:42.351Z,0.00
2022-09-26T01:00:42.634Z,0.00
2022-09-26T01:01:42.513Z,0.00
2022-09-26T01:02:42.413Z,0.00
2022-09-26T01:03:42.292Z,0.00
2022-09-26T01:04:42.248Z,0.00
2022-09-26T01:05:42.292Z,0.00
2022-09-26T01:06:42.258Z,0.00
2022-09-26T01:07:42.297Z,0.00
2022-09-26T01:08:42.250Z,0.00
2022-09-26T01:09:42.282Z,0.00
2022-09-26T01:10:42.194Z,0.00
2022-09-26T01:11:42.197Z,0.00
2022-09-26T01:12:42.162Z,0.00
2022-09-26T01:13:42.149Z,0.00
2022-09-26T01:14:42.162Z,0.00
2022-09-26T01:15:42.169Z,0.00
2022-09-26T01:16:42.226Z,0.00
2022-09-26T01:17:42.221Z,0.00
2022-09-26T01:18:42.085Z,0.00
2022-09-26T01:19:44.041Z,0.00
2022-09-26T01:22:45.818Z,0.00
2022-09-26T01:23:47.749Z,0.00
2022-09-26T01:24:47.260Z,0.00
2022-09-26T01:25:46.807Z,0.00
2022-09-26T01:26:47.715Z,0.00
2022-09-26T01:27:46.768Z,0.00
2022-09-26T01:28:47.598Z,0.00
2022-09-26T01:29:46.738Z,0.00
2022-09-26T01:30:48.298Z,0.00
2022-09-26T01:31:47.540Z,0.00
2022-09-26T01:32:47.208Z,0.00
2022-09-26T01:33:46.722Z,0.00
2022-09-26T01:34:46.685Z,0.00
2022-09-26T01:35:46.741Z,0.00
2022-09-26T01:36:46.737Z,0.00
2022-09-26T01:37:46.672Z,0.00
2022-09-26T01:38:47.274Z,0.00
2022-09-26T01:39:46.628Z,0.00
2022-09-26T01:40:46.692Z,0.00
2022-09-26T01:41:46.626Z,0.00
2022-09-26T01:42:46.628Z,0.00
2022-09-26T01:43:46.592Z,0.00
2022-09-26T01:44:48.159Z,0.00
2022-09-26T01:45:47.456Z,0.00
2022-09-26T01:46:46.542Z,0.00
2022-09-26T01:47:49.070Z,0.00
2022-09-26T01:48:46.496Z,0.00
2022-09-26T01:49:48.277Z,0.00
2022-09-26T01:50:47.506Z,0.00
2022-09-26T01:51:46.500Z,0.00
2022-09-26T01:52:46.483Z,0.00
2022-09-26T01:53:46.517Z,0.00
2022-09-26T01:54:46.422Z,0.00
2022-09-26T01:55:46.440Z,0.00
2022-09-26T01:56:46.484Z,0.00
2022-09-26T01:57:46.463Z,0.00
2022-09-26T01:58:46.388Z,0.00
2022-09-26T01:59:46.371Z,0.00
2022-09-26T02:00:46.437Z,0.00
2022-09-26T02:01:46.492Z,0.00
2022-09-26T02:02:48.107Z,0.00
2022-09-26T02:03:46.356Z,0.00
2022-09-26T02:04:46.347Z,0.00
2022-09-26T02:05:46.351Z,0.00
2022-09-26T02:06:46.359Z,0.00
2022-09-26T02:07:46.318Z,0.00
2022-09-26T02:08:46.328Z,0.00
2022-09-26T02:09:47.290Z,0.00
2022-09-26T02:10:46.267Z,0.00
2022-09-26T02:11:46.266Z,0.00
2022-09-26T02:12:46.292Z,0.00
2022-09-26T02:13:46.272Z,0.00
2022-09-26T02:14:46.212Z,0.00
2022-09-26T02:15:46.187Z,0.00
2022-09-26T02:16:47.026Z,0.00
2022-09-26T02:17:46.183Z,0.00
2022-09-26T02:18:46.182Z,0.00
2022-09-26T02:19:46.778Z,0.00
2022-09-26T02:20:46.148Z,0.00
2022-09-26T02:21:46.145Z,0.00
2022-09-26T02:22:46.163Z,0.00
2022-09-26T02:23:47.780Z,0.00
2022-09-26T02:24:46.108Z,0.00
2022-09-26T02:25:46.113Z,0.00
2022-09-26T02:26:46.092Z,0.00
2022-09-26T02:27:46.044Z,0.00
2022-09-26T02:28:46.090Z,0.00
2022-09-26T02:29:46.066Z,0.00
2022-09-26T02:30:46.063Z,0.00
2022-09-26T02:31:46.089Z,0.00
2022-09-26T02:32:46.930Z,0.00
2022-09-26T02:33:46.011Z,0.00
2022-09-26T02:34:46.001Z,0.00
2022-09-26T02:35:46.947Z,0.00
2022-09-26T02:36:45.995Z,0.00
2022-09-26T02:37:45.962Z,0.00
2022-09-26T02:38:45.988Z,0.00
2022-09-26T02:39:45.909Z,0.00
2022-09-26T02:40:46.838Z,0.00
2022-09-26T02:41:45.925Z,0.00
2022-09-26T02:42:46.596Z,0.00
2022-09-26T02:43:45.943Z,0.00
2022-09-26T02:44:46.760Z,0.00
2022-09-26T02:45:45.949Z,0.00
2022-09-26T02:46:45.835Z,0.00
2022-09-26T02:47:45.811Z,0.00
2022-09-26T02:48:45.849Z,0.00
2022-09-26T02:49:45.818Z,0.00
2022-09-26T02:50:46.748Z,0.00
2022-09-26T02:51:45.808Z,0.00
2022-09-26T02:52:46.558Z,0.00
2022-09-26T02:53:46.861Z,0.00
2022-09-26T02:54:45.804Z,0.00
2022-09-26T02:55:48.171Z,0.00
2022-09-26T02:56:45.722Z,0.00
2022-09-26T02:57:46.245Z,0.00
2022-09-26T02:58:45.730Z,0.00
2022-09-26T02:59:45.718Z,0.00
2022-09-26T03:00:45.779Z,0.00
2022-09-26T03:01:45.753Z,0.00
2022-09-26T03:02:46.632Z,0.00
2022-09-26T03:03:46.465Z,0.00
2022-09-26T03:04:48.328Z,0.00
2022-09-26T03:05:46.288Z,0.00
2022-09-26T03:06:48.259Z,0.00
2022-09-26T03:07:45.605Z,0.00
2022-09-26T03:08:45.605Z,0.00
2022-09-26T03:09:45.594Z,0.00
2022-09-26T03:10:45.535Z,0.00
2022-09-26T03:11:45.570Z,0.00
2022-09-26T03:12:45.553Z,0.00
2022-09-26T03:13:45.534Z,0.00
2022-09-26T03:14:46.293Z,0.00
2022-09-26T03:15:45.565Z,0.00
2022-09-26T03:16:46.301Z,0.00
2022-09-26T03:17:45.548Z,0.00
2022-09-26T03:18:46.406Z,0.00
2022-09-26T03:19:45.502Z,0.00
2022-09-26T03:20:46.249Z,0.00
2022-09-26T03:21:45.467Z,0.00
2022-09-26T03:22:45.498Z,0.00
2022-09-26T03:24:16.210Z,0.00
2022-09-26T03:24:45.413Z,0.00
2022-09-26T03:25:45.455Z,0.00
2022-09-26T03:26:46.162Z,0.00
2022-09-26T03:27:45.389Z,0.00
2022-09-26T03:28:45.398Z,0.00
2022-09-26T03:29:45.413Z,0.00
2022-09-26T03:30:45.373Z,0.00
2022-09-26T03:31:45.646Z,0.00
2022-09-26T03:32:45.306Z,0.00
2022-09-26T03:33:45.281Z,0.00
2022-09-26T03:34:45.328Z,0.00
2022-09-26T03:35:45.276Z,0.00
2022-09-26T03:36:45.345Z,0.00
2022-09-26T03:37:45.269Z,0.00
2022-09-26T03:38:45.249Z,0.00
2022-09-26T03:39:45.237Z,0.00
2022-09-26T03:40:45.862Z,0.00
2022-09-26T03:41:45.274Z,0.00
2022-09-26T03:42:45.811Z,0.00
2022-09-26T03:43:46.409Z,0.00
2022-09-26T03:44:45.199Z,0.00
2022-09-26T03:45:45.277Z,0.00
2022-09-26T03:46:45.184Z,0.00
2022-09-26T03:47:45.160Z,0.00
2022-09-26T03:48:45.132Z,0.00
2022-09-26T03:49:45.172Z,0.00
2022-09-26T03:50:45.171Z,0.00
2022-09-26T03:51:45.087Z,0.00
2022-09-26T03:52:45.054Z,0.00
2022-09-26T03:53:45.083Z,0.00
2022-09-26T03:54:46.009Z,0.00
2022-09-26T03:55:45.074Z,0.00
2022-09-26T03:56:45.095Z,0.00
2022-09-26T03:57:45.028Z,0.00
2022-09-26T03:58:44.984Z,0.00
2022-09-26T03:59:45.028Z,0.00
2022-09-26T04:00:45.870Z,0.00
2022-09-26T04:01:45.005Z,0.00
2022-09-26T04:02:45.028Z,0.00
2022-09-26T04:03:49.982Z,0.00
2022-09-26T04:04:44.976Z,0.00
2022-09-26T04:05:45.309Z,0.00
2022-09-26T04:06:45.885Z,0.00
2022-09-26T04:07:44.896Z,0.00
2022-09-26T04:28:13.848Z,0.00
2022-09-26T04:28:51.550Z,0.00
2022-09-26T04:29:51.502Z,0.00
2022-09-26T04:30:51.477Z,0.00
2022-09-26T04:31:51.629Z,0.00
2022-09-26T04:32:51.465Z,0.00
2022-09-26T04:33:51.494Z,0.00
2022-09-26T04:34:52.292Z,0.00
2022-09-26T04:35:51.482Z,0.00
2022-09-26T04:36:54.338Z,0.00
2022-09-26T04:37:51.436Z,0.00
2022-09-26T04:38:51.404Z,0.00
2022-09-26T04:39:51.465Z,0.00
2022-09-26T04:40:52.274Z,0.00
2022-09-26T04:41:51.411Z,0.00
2022-09-26T04:42:51.384Z,0.00
2022-09-26T04:43:51.372Z,0.00
2022-09-26T04:44:53.325Z,0.00
2022-09-26T04:45:52.239Z,0.00
2022-09-26T04:46:51.361Z,0.00
2022-09-26T04:47:51.294Z,0.00
2022-09-26T04:48:51.319Z,0.00
2022-09-26T04:49:52.051Z,0.00
2022-09-26T04:50:51.294Z,0.00
2022-09-26T04:51:51.325Z,0.00
2022-09-26T04:52:52.015Z,0.00
2022-09-26T04:53:51.274Z,0.00
2022-09-26T04:54:51.253Z,0.00
2022-09-26T04:55:51.253Z,0.00
2022-09-26T04:56:51.249Z,0.00
2022-09-26T04:57:51.454Z,0.00
2022-09-26T04:58:51.190Z,0.00
2022-09-26T04:59:51.194Z,0.00
2022-09-26T05:00:51.259Z,0.00
2022-09-26T05:01:51.232Z,0.00
2022-09-26T05:02:52.793Z,0.00
2022-09-26T05:03:53.003Z,0.00
2022-09-26T05:04:51.105Z,0.00
2022-09-26T05:05:51.747Z,0.00
2022-09-26T05:06:51.098Z,0.00
2022-09-26T05:07:51.074Z,0.00
2022-09-26T05:08:51.844Z,0.00
2022-09-26T05:09:51.062Z,0.00
2022-09-26T05:10:51.023Z,0.00
2022-09-26T05:11:51.018Z,0.00
2022-09-26T05:12:51.029Z,0.00
2022-09-26T05:13:53.770Z,0.00
2022-09-26T05:14:50.997Z,0.00
2022-09-26T05:15:51.037Z,0.00
2022-09-26T05:16:50.990Z,0.00
2022-09-26T05:17:52.923Z,0.00
2022-09-26T05:18:50.977Z,0.00
2022-09-26T05:19:50.925Z,0.00
2022-09-26T05:20:51.867Z,0.00
2022-09-26T05:21:50.933Z,0.00
2022-09-26T05:22:50.946Z,0.00
2022-09-26T05:23:50.906Z,0.00
2022-09-26T05:24:52.823Z,0.00
2022-09-26T05:25:50.872Z,0.00
2022-09-26T05:26:50.819Z,0.00
2022-09-26T05:27:50.810Z,0.00
2022-09-26T05:28:50.846Z,0.00
2022-09-26T05:29:50.785Z,0.00
2022-09-26T05:30:50.810Z,0.00
2022-09-26T05:31:50.832Z,0.00
2022-09-26T05:32:50.838Z,0.00
2022-09-26T05:33:50.777Z,0.00
2022-09-26T05:34:51.940Z,0.00
2022-09-26T05:35:51.502Z,0.00
2022-09-26T05:36:50.723Z,0.00
2022-09-26T05:37:50.765Z,0.00
2022-09-26T05:38:50.730Z,0.00
2022-09-26T05:39:51.457Z,0.00
2022-09-26T05:40:50.842Z,0.00
2022-09-26T05:41:50.689Z,0.00
2022-09-26T05:42:50.701Z,0.00
2022-09-26T05:43:50.653Z,0.00
2022-09-26T05:44:51.187Z,0.00
2022-09-26T05:45:50.694Z,0.00
2022-09-26T05:46:51.654Z,0.00
2022-09-26T05:47:50.658Z,0.00
2022-09-26T05:48:50.610Z,0.00
2022-09-26T05:49:51.303Z,0.00
2022-09-26T05:50:50.574Z,0.00
2022-09-26T05:51:59.581Z,0.00
2022-09-26T05:52:51.155Z,0.00
2022-09-26T05:53:50.552Z,0.00
2022-09-26T05:54:51.192Z,0.00
2022-09-26T05:55:50.541Z,0.00
2022-09-26T05:56:50.478Z,0.00
2022-09-26T05:57:50.551Z,0.00
2022-09-26T05:58:50.486Z,0.00
2022-09-26T05:59:50.501Z,0.00
2022-09-26T06:00:50.556Z,0.00
2022-09-26T06:01:50.503Z,0.00
2022-09-26T06:02:51.196Z,0.00
2022-09-26T06:03:50.433Z,0.00
2022-09-26T06:04:50.442Z,0.00
2022-09-26T06:05:52.578Z,0.00
2022-09-26T08:17:03.294Z,0.00
2022-09-26T08:17:42.843Z,0.00
2022-09-26T08:18:42.786Z,0.00
2022-09-26T08:19:42.803Z,0.00
2022-09-26T08:20:42.766Z,0.00
2022-09-26T09:59:24.217Z,356.00
2022-09-26T10:00:24.885Z,344.00
2022-09-26T10:01:25.547Z,364.00
2022-09-26T10:02:24.872Z,412.00
2022-09-26T10:07:38.711Z,536.00
2022-09-26T10:08:05.001Z,512.00
2022-09-26T10:09:36.473Z,512.00
2022-09-26T10:10:04.979Z,524.00
2022-09-26T10:11:04.988Z,552.00
2022-09-26T10:36:45.762Z,212.00
2022-09-26T10:37:42.357Z,224.00
2022-09-26T10:38:42.325Z,228.00
2022-09-26T11:09:38.197Z,412.00
2022-09-26T11:10:37.911Z,396.00
2022-09-26T11:11:37.837Z,376.00
2022-09-26T11:12:37.428Z,372.00
2022-09-26T11:13:37.431Z,360.00
2022-09-26T11:14:36.752Z,356.00
2022-09-26T11:15:38.308Z,348.00
2022-09-26T11:17:58.599Z,284.00
2022-09-26T11:18:59.577Z,260.00
2022-09-26T11:19:59.575Z,260.00
2022-09-26T11:21:00.261Z,308.00
2022-09-26T11:22:03.203Z,432.00
2022-09-26T11:22:59.569Z,640.00
2022-09-26T11:23:59.506Z,828.00
2022-09-26T11:24:59.548Z,904.00
2022-09-26T11:25:59.526Z,880.00
2022-09-26T11:27:00.306Z,820.00
2022-09-26T11:27:59.494Z,752.00
2022-09-26T11:28:59.549Z,708.00
2022-09-26T11:29:59.493Z,676.00
2022-09-26T11:31:02.676Z,668.00
2022-09-26T11:32:00.551Z,684.00
2022-09-26T11:32:59.423Z,740.00
2022-09-26T11:33:59.423Z,832.00
2022-09-26T11:34:59.439Z,948.00
2022-09-26T11:35:59.389Z,1080.00
2022-09-26T11:36:59.423Z,1240.00
2022-09-26T11:37:59.347Z,1372.00
2022-09-26T11:38:59.379Z,1460.00
2022-09-26T11:40:00.336Z,1652.00
2022-09-26T11:40:59.456Z,1768.00
2022-09-26T11:41:59.344Z,1824.00
2022-09-26T11:42:59.345Z,1844.00
2022-09-26T11:43:59.818Z,1796.00
2022-09-26T11:44:59.325Z,1736.00
2022-09-26T11:45:59.355Z,1668.00
2022-09-26T11:46:59.301Z,1652.00
2022-09-26T11:48:01.396Z,1652.00
2022-09-26T11:49:00.014Z,1700.00
2022-09-26T11:49:59.249Z,1720.00
2022-09-26T11:50:59.261Z,1828.00
2022-09-26T11:51:59.235Z,2024.00
2022-09-26T11:52:59.225Z,2180.00
2022-09-26T11:53:59.187Z,2292.00
2022-09-26T11:54:59.202Z,2316.00
2022-09-26T11:55:59.214Z,2312.00
2022-09-26T11:56:59.172Z,2308.00
2022-09-26T11:58:03.217Z,2300.00
2022-09-26T11:58:59.945Z,2328.00
2022-09-26T11:59:59.123Z,2328.00
2022-09-26T12:01:03.796Z,2280.00
2022-09-26T12:01:59.175Z,2216.00
2022-09-26T12:03:00.404Z,2136.00
2022-09-26T12:04:05.418Z,2052.00
2022-09-26T12:04:59.053Z,2052.00
2022-09-26T12:05:59.883Z,2108.00
2022-09-26T12:06:59.049Z,2116.00
2022-09-26T12:07:59.058Z,2072.00
2022-09-26T12:08:59.076Z,1916.00
2022-09-26T12:09:59.754Z,1692.00
2022-09-26T12:11:00.006Z,1524.00
2022-09-26T12:11:59.091Z,1468.00
2022-09-26T12:12:59.733Z,1452.00
2022-09-26T12:13:59.111Z,1464.00
2022-09-26T12:14:59.002Z,1504.00
2022-09-26T12:16:01.383Z,1576.00
2022-09-26T12:16:59.842Z,1640.00
2022-09-26T12:18:02.002Z,1748.00
2022-09-26T12:18:59.531Z,1880.00
2022-09-26T12:20:01.196Z,1956.00
2022-09-26T12:20:58.910Z,2096.00
2022-09-26T12:21:58.846Z,2160.00
2022-09-26T12:22:59.217Z,2136.00
2022-09-26T12:23:59.491Z,1992.00
2022-09-26T12:24:58.885Z,1852.00
2022-09-26T12:25:58.870Z,1796.00
2022-09-26T12:26:58.855Z,1780.00
2022-09-26T12:28:04.062Z,1716.00
2022-09-26T12:28:59.564Z,1624.00
2022-09-26T12:29:58.819Z,1524.00
2022-09-26T12:31:00.143Z,1492.00
2022-09-26T12:31:59.932Z,1460.00
2022-09-26T12:32:58.806Z,1384.00
2022-09-26T12:33:59.479Z,1272.00
2022-09-26T12:34:58.754Z,1184.00
2022-09-26T12:35:58.760Z,1144.00
2022-09-26T12:37:01.516Z,1144.00
2022-09-26T12:37:58.704Z,1192.00
2022-09-26T12:38:58.723Z,1320.00
2022-09-26T12:39:59.538Z,1444.00
2022-09-26T12:40:58.752Z,1564.00
2022-09-26T12:41:58.628Z,1624.00
2022-09-26T12:42:58.613Z,1660.00
2022-09-26T12:43:58.710Z,1672.00
2022-09-26T12:44:58.615Z,1652.00
2022-09-26T12:45:58.669Z,1632.00
2022-09-26T12:47:00.920Z,1604.00
2022-09-26T12:47:58.554Z,1508.00
2022-09-26T12:48:59.483Z,1540.00
2022-09-26T12:49:58.597Z,1540.00
2022-09-26T12:50:58.556Z,1492.00
2022-09-26T12:51:58.589Z,1472.00
2022-09-26T12:52:58.499Z,1536.00
2022-09-26T12:53:58.480Z,1564.00
2022-09-26T12:54:58.541Z,1476.00
2022-09-26T12:55:58.514Z,1452.00
2022-09-26T12:56:58.552Z,1436.00
2022-09-26T12:57:58.505Z,1424.00
2022-09-26T12:58:58.440Z,1408.00
2022-09-26T12:59:59.146Z,1332.00
2022-09-26T13:00:59.546Z,1276.00
2022-09-26T13:01:59.227Z,1196.00
2022-09-26T13:02:58.484Z,1168.00
2022-09-26T13:03:58.411Z,1200.00
2022-09-26T13:04:59.279Z,1288.00
2022-09-26T13:05:58.376Z,1444.00
2022-09-26T13:07:17.662Z,1500.00
2022-09-26T13:07:58.499Z,1548.00
2022-09-26T13:08:59.009Z,1692.00
2022-09-26T13:09:58.344Z,1864.00
2022-09-26T13:10:58.845Z,2052.00
2022-09-26T13:12:00.435Z,2192.00
2022-09-26T13:12:58.335Z,2344.00
2022-09-26T13:13:57.850Z,2396.00
2022-09-26T13:14:58.257Z,2388.00
2022-09-26T13:15:59.063Z,2372.00
2022-09-26T13:16:58.279Z,2292.00
2022-09-26T13:17:58.225Z,2116.00
2022-09-26T13:18:59.967Z,1940.00
2022-09-26T13:19:58.386Z,1736.00
2022-09-26T13:20:58.202Z,1560.00
2022-09-26T13:21:58.208Z,1412.00
2022-09-26T13:22:58.198Z,1276.00
2022-09-26T13:23:58.148Z,1160.00
2022-09-26T13:24:58.148Z,1080.00
2022-09-26T13:25:58.153Z,1076.00
2022-09-26T13:26:58.099Z,1068.00
2022-09-26T13:27:58.138Z,1076.00
2022-09-26T13:29:16.341Z,1112.00
2022-09-26T13:29:58.158Z,1096.00
2022-09-26T13:30:58.222Z,1084.00
2022-09-26T13:31:58.041Z,1084.00
2022-09-26T13:32:58.073Z,1032.00
2022-09-26T13:33:58.048Z,996.00
2022-09-26T13:34:58.033Z,960.00
2022-09-26T13:35:58.002Z,920.00
2022-09-26T13:36:58.023Z,884.00
2022-09-26T13:38:02.104Z,832.00
2022-09-26T13:38:57.981Z,796.00
2022-09-26T13:39:57.999Z,780.00
2022-09-26T13:40:58.055Z,824.00
2022-09-26T13:41:57.935Z,904.00
2022-09-26T13:43:02.682Z,1040.00
2022-09-26T13:43:57.961Z,1184.00
2022-09-26T13:44:57.963Z,1360.00
2022-09-26T13:45:57.987Z,1468.00
2022-09-26T13:46:57.948Z,1616.00
2022-09-26T13:47:57.858Z,1768.00
2022-09-26T13:48:57.850Z,1920.00
2022-09-26T13:49:57.863Z,2144.00
2022-09-26T13:50:57.861Z,2272.00
2022-09-26T13:51:58.578Z,2336.00
2022-09-26T13:52:58.353Z,2288.00
2022-09-26T13:53:57.874Z,2140.00
2022-09-26T13:54:57.818Z,1920.00
2022-09-26T13:55:57.844Z,1756.00
2022-09-26T13:56:57.790Z,1664.00
2022-09-26T13:57:57.779Z,1612.00
2022-09-26T13:58:57.732Z,1524.00
2022-09-26T13:59:57.784Z,1368.00
2022-09-26T14:00:57.784Z,1260.00
2022-09-26T14:01:57.725Z,1064.00
2022-09-26T14:03:00.220Z,860.00
2022-09-26T14:03:58.330Z,764.00
2022-09-26T14:04:57.664Z,800.00
2022-09-26T14:05:57.683Z,936.00
2022-09-26T14:06:57.697Z,1148.00
2022-09-26T14:07:57.642Z,1296.00
2022-09-26T14:08:57.649Z,1296.00
2022-09-26T14:09:57.632Z,1224.00
2022-09-26T14:10:57.648Z,1080.00
2022-09-26T14:11:57.603Z,944.00
2022-09-26T14:12:57.602Z,864.00
2022-09-26T14:13:57.561Z,820.00
2022-09-26T14:14:57.560Z,816.00
2022-09-26T14:15:57.601Z,832.00
2022-09-26T14:16:57.535Z,852.00
2022-09-26T14:17:58.256Z,892.00
2022-09-26T14:18:57.560Z,956.00
2022-09-26T14:19:57.526Z,1008.00
2022-09-26T14:20:57.516Z,1056.00
2022-09-26T14:21:57.528Z,1092.00
2022-09-26T14:22:57.502Z,1152.00
2022-09-26T14:23:57.469Z,1144.00
2022-09-26T14:24:57.463Z,1096.00
2022-09-26T14:25:57.460Z,1060.00
2022-09-26T14:26:57.443Z,1032.00
2022-09-26T14:27:57.447Z,1012.00
2022-09-26T14:28:57.387Z,1004.00
2022-09-26T14:29:57.353Z,1044.00
2022-09-26T14:30:57.502Z,1104.00
2022-09-26T14:31:57.339Z,1132.00
2022-09-26T14:32:57.431Z,1160.00
2022-09-26T14:33:59.555Z,1196.00
2022-09-26T14:34:57.456Z,1212.00
2022-09-26T14:35:57.375Z,1208.00
2022-09-26T14:36:57.353Z,1204.00
2022-09-26T14:37:57.333Z,1192.00
2022-09-26T14:38:57.290Z,1216.00
2022-09-26T14:39:57.323Z,1268.00
2022-09-26T14:40:57.379Z,1336.00
2022-09-26T14:41:57.273Z,1392.00
2022-09-26T14:42:57.245Z,1436.00
2022-09-26T14:43:57.236Z,1456.00
2022-09-26T14:44:57.221Z,1468.00
2022-09-26T14:45:57.310Z,1456.00
2022-09-26T14:46:57.236Z,1400.00
2022-09-26T14:47:57.179Z,1332.00
2022-09-26T14:48:57.147Z,1300.00
2022-09-26T14:49:57.119Z,1284.00
2022-09-26T14:50:57.169Z,1300.00
2022-09-26T14:51:57.168Z,1340.00
2022-09-26T14:52:57.130Z,1376.00
2022-09-26T14:53:57.104Z,1448.00
2022-09-26T14:54:57.057Z,1468.00
2022-09-26T14:55:57.067Z,1476.00
2022-09-26T14:56:57.096Z,1488.00
2022-09-26T14:57:57.047Z,1524.00
2022-09-26T14:58:57.844Z,1576.00
2022-09-26T14:59:57.038Z,1644.00
2022-09-26T15:00:57.036Z,1716.00
2022-09-26T15:01:57.054Z,1804.00
2022-09-26T15:03:00.878Z,1968.00
2022-09-26T15:03:56.996Z,2180.00
2022-09-26T15:04:56.996Z,2464.00
2022-09-26T15:05:57.019Z,2728.00
2022-09-26T15:06:57.021Z,2940.00
2022-09-26T15:07:56.951Z,3156.00
2022-09-26T15:08:56.945Z,3280.00
2022-09-26T15:09:56.916Z,3356.00
2022-09-26T15:10:56.906Z,3384.00
2022-09-26T15:11:56.923Z,3304.00
2022-09-26T15:12:56.878Z,3176.00
2022-09-26T15:13:56.837Z,3020.00
2022-09-26T15:15:01.169Z,2980.00
2022-09-26T15:15:56.903Z,2984.00
2022-09-26T15:16:56.849Z,2976.00
2022-09-26T15:17:56.844Z,2988.00
2022-09-26T15:18:56.850Z,3092.00
2022-09-26T15:19:56.836Z,3052.00
2022-09-26T15:21:00.465Z,3144.00
2022-09-26T15:21:56.868Z,3164.00
2022-09-26T15:22:56.785Z,3228.00
2022-09-26T15:23:56.752Z,3252.00
2022-09-26T15:24:56.747Z,3236.00
2022-09-26T15:25:56.718Z,3204.00
2022-09-26T15:26:56.707Z,3064.00
2022-09-26T15:27:56.895Z,2756.00
2022-09-26T15:28:57.393Z,2428.00
2022-09-26T15:29:56.706Z,2192.00
2022-09-26T15:30:56.696Z,1940.00
2022-09-26T15:31:56.700Z,1736.00
2022-09-26T15:32:56.649Z,1580.00
2022-09-26T15:33:56.613Z,1480.00
2022-09-26T15:34:56.647Z,1416.00
2022-09-26T15:35:56.620Z,1376.00
2022-09-26T15:36:56.545Z,1328.00
2022-09-26T15:37:56.586Z,1212.00
2022-09-26T15:38:56.594Z,1140.00
2022-09-26T15:39:56.897Z,1088.00
2022-09-26T15:40:56.637Z,976.00
2022-09-26T15:41:56.555Z,920.00
2022-09-26T15:42:56.533Z,908.00
2022-09-26T15:43:56.560Z,936.00
2022-09-26T15:44:57.407Z,1024.00
2022-09-26T15:45:56.595Z,1156.00
2022-09-26T15:46:56.576Z,1244.00
2022-09-26T15:47:56.501Z,1344.00
2022-09-26T15:48:56.455Z,1428.00
2022-09-26T15:49:56.487Z,1408.00
2022-09-26T15:50:58.037Z,1356.00
2022-09-26T15:51:56.453Z,1288.00
2022-09-26T15:52:56.396Z,1268.00
2022-09-26T15:53:56.395Z,1212.00
2022-09-26T15:54:56.408Z,1128.00
2022-09-26T15:55:56.442Z,1040.00
2022-09-26T15:56:57.136Z,984.00
2022-09-26T15:57:56.413Z,992.00
2022-09-26T15:58:56.351Z,1096.00
2022-09-26T15:59:56.401Z,1152.00
2022-09-26T16:00:56.333Z,1164.00
2022-09-26T16:01:56.398Z,1096.00
2022-09-26T16:02:57.157Z,992.00
2022-09-26T16:03:56.329Z,812.00
2022-09-26T16:04:56.298Z,644.00
2022-09-26T16:05:56.299Z,484.00
2022-09-26T16:06:56.280Z,452.00
2022-09-26T16:07:56.275Z,628.00
2022-09-26T16:08:56.274Z,916.00
2022-09-26T16:09:56.901Z,1168.00
2022-09-26T16:10:56.889Z,1320.00
2022-09-26T16:11:56.207Z,1356.00
2022-09-26T16:12:56.245Z,1284.00
2022-09-26T16:13:56.189Z,1092.00
2022-09-26T16:14:56.179Z,896.00
2022-09-26T16:15:56.310Z,824.00
2022-09-26T16:16:56.188Z,844.00
2022-09-26T16:17:56.299Z,888.00
2022-09-26T16:18:56.179Z,952.00
2022-09-26T16:19:56.822Z,1076.00
2022-09-26T16:20:56.132Z,1260.00
2022-09-26T16:21:56.136Z,1512.00
2022-09-26T16:23:00.317Z,1900.00
2022-09-26T16:23:56.841Z,2196.00
2022-09-26T16:24:56.045Z,2388.00
2022-09-26T16:25:56.030Z,2536.00
2022-09-26T16:26:56.073Z,2516.00
2022-09-26T16:27:56.060Z,2480.00
2022-09-26T16:28:56.715Z,2480.00
2022-09-26T16:29:56.127Z,2544.00
2022-09-26T16:30:56.028Z,2612.00
2022-09-26T16:31:55.966Z,2704.00
2022-09-26T16:32:55.991Z,2744.00
2022-09-26T16:33:56.007Z,2680.00
2022-09-26T16:34:55.972Z,2596.00
2022-09-26T16:35:56.658Z,2572.00
2022-09-26T16:36:55.966Z,2700.00
2022-09-26T16:37:55.895Z,2976.00
2022-09-26T16:38:55.947Z,3500.00
2022-09-26T16:39:56.194Z,4192.00
2022-09-26T16:40:56.779Z,4788.00
2022-09-26T16:42:01.776Z,5132.00
2022-09-26T16:42:55.846Z,5132.00
2022-09-26T16:43:55.825Z,5032.00
2022-09-26T16:44:55.882Z,4804.00
2022-09-26T16:45:55.874Z,4612.00
2022-09-26T16:46:55.812Z,4464.00
2022-09-26T16:47:55.796Z,4372.00
2022-09-26T16:48:57.441Z,4176.00
2022-09-26T16:49:55.773Z,3788.00
2022-09-26T16:50:55.755Z,3348.00
2022-09-26T16:51:55.737Z,3044.00
2022-09-26T16:52:56.782Z,2884.00
2022-09-26T16:53:56.266Z,2948.00
2022-09-26T16:54:55.728Z,3300.00
2022-09-26T16:55:55.758Z,3596.00
2022-09-26T16:56:56.531Z,3908.00
2022-09-26T16:57:55.714Z,4336.00
2022-09-26T16:58:55.694Z,4696.00
2022-09-26T16:59:55.697Z,4928.00
2022-09-26T17:00:56.288Z,5192.00
2022-09-26T17:01:55.737Z,5524.00
2022-09-26T17:02:55.709Z,5928.00
2022-09-26T17:03:55.618Z,6412.00
2022-09-26T17:04:55.596Z,6988.00
2022-09-26T17:05:55.584Z,7728.00
2022-09-26T17:06:55.609Z,7956.00
2022-09-26T17:07:55.598Z,7800.00
2022-09-26T17:08:56.760Z,6724.00
2022-09-26T17:09:56.602Z,6040.00
2022-09-26T17:10:55.558Z,5368.00
2022-09-26T17:11:56.535Z,4860.00
2022-09-26T17:12:55.538Z,4600.00
2022-09-26T17:13:55.517Z,4452.00
2022-09-26T17:14:56.457Z,4368.00
2022-09-26T17:15:56.742Z,4448.00
2022-09-26T17:16:55.456Z,4456.00
2022-09-26T17:17:55.482Z,4264.00
2022-09-26T17:18:56.176Z,3972.00
2022-09-26T17:19:59.423Z,3540.00
2022-09-26T17:20:57.798Z,3104.00
2022-09-26T17:21:57.440Z,2696.00
2022-09-26T17:22:55.463Z,2280.00
2022-09-26T17:23:55.362Z,1912.00
2022-09-26T17:24:55.374Z,1636.00
2022-09-26T17:25:57.732Z,1576.00
2022-09-26T17:26:57.557Z,1684.00
2022-09-26T17:27:55.375Z,1716.00
2022-09-26T17:28:55.902Z,1672.00
2022-09-26T17:29:55.299Z,1528.00
2022-09-26T17:30:55.309Z,1188.00
2022-09-26T17:31:55.329Z,920.00
2022-09-26T17:32:55.299Z,652.00
2022-09-26T17:33:55.303Z,536.00
2022-09-26T17:34:55.262Z,516.00
2022-09-26T17:35:55.243Z,512.00
2022-09-26T17:36:55.990Z,444.00
2022-09-26T17:37:56.077Z,360.00
2022-09-26T17:38:57.071Z,296.00
2022-09-26T17:39:56.022Z,288.00
2022-09-26T17:40:56.336Z,340.00
2022-09-26T17:41:55.178Z,456.00
2022-09-26T17:42:55.389Z,592.00
2022-09-26T17:43:55.199Z,680.00
2022-09-26T17:44:55.162Z,756.00
2022-09-26T17:45:55.227Z,900.00
2022-09-26T17:46:55.191Z,1056.00
2022-09-26T17:47:55.125Z,1144.00
2022-09-26T17:48:56.071Z,1208.00